createdAt,value
2024-05-09T00:00:47.683Z,72.79
2024-05-09T00:01:47.474Z,73.10
2024-05-09T00:02:47.586Z,73.33
2024-05-09T00:03:47.487Z,73.54
2024-05-09T00:04:47.473Z,73.64
2024-05-09T00:05:47.585Z,73.84
2024-05-09T00:06:47.446Z,73.94
2024-05-09T00:07:47.505Z,74.15
2024-05-09T00:08:47.356Z,74.15
2024-05-09T00:09:47.345Z,74.15
2024-05-09T00:10:47.558Z,74.35
2024-05-09T00:11:47.439Z,74.49
2024-05-09T00:12:47.363Z,74.59
2024-05-09T00:13:47.398Z,74.69
2024-05-09T00:14:47.310Z,74.80
2024-05-09T00:15:47.463Z,75.14
2024-05-09T00:16:47.334Z,75.45
2024-05-09T00:17:47.506Z,75.55
2024-05-09T00:18:47.333Z,75.75
2024-05-09T00:19:47.420Z,75.75
2024-05-09T00:20:47.288Z,76.09
2024-05-09T00:21:47.323Z,76.30
2024-05-09T00:22:47.295Z,76.30
2024-05-09T00:23:47.211Z,76.20
2024-05-09T00:24:47.200Z,76.20
2024-05-09T00:25:47.214Z,76.06
2024-05-09T00:26:47.173Z,76.09
2024-05-09T00:27:47.176Z,76.30
2024-05-09T00:28:47.166Z,76.40
2024-05-09T00:29:47.138Z,76.40
2024-05-09T00:30:47.126Z,76.50
2024-05-09T00:31:47.145Z,76.50
2024-05-09T00:32:47.263Z,76.30
2024-05-09T00:33:47.226Z,76.40
2024-05-09T00:34:47.126Z,76.30
2024-05-09T00:35:47.089Z,76.40
2024-05-09T00:36:47.108Z,76.50
2024-05-09T00:37:47.078Z,76.61
2024-05-09T00:38:47.037Z,76.30
2024-05-09T00:39:47.063Z,76.71
2024-05-09T00:40:47.181Z,76.95
2024-05-09T00:41:47.045Z,77.12
2024-05-09T00:42:47.041Z,77.26
2024-05-09T00:43:47.028Z,77.26
2024-05-09T00:44:46.971Z,77.46
2024-05-09T00:45:46.965Z,77.46
2024-05-09T00:46:47.027Z,77.67
2024-05-09T00:47:47.300Z,78.01
2024-05-09T00:48:47.037Z,78.31
2024-05-09T00:49:47.069Z,78.52
2024-05-09T00:50:46.985Z,78.52
2024-05-09T00:51:46.943Z,78.63
2024-05-09T00:52:47.025Z,78.63
2024-05-09T00:53:46.898Z,78.31
2024-05-09T00:54:46.858Z,78.31
2024-05-09T00:55:46.973Z,78.31
2024-05-09T00:56:46.848Z,78.31
2024-05-09T00:57:46.860Z,78.21
2024-05-09T00:58:46.880Z,78.31
2024-05-09T00:59:46.815Z,78.21
2024-05-09T01:00:46.946Z,78.31
2024-05-09T01:01:46.934Z,78.31
2024-05-09T01:02:46.883Z,78.42
2024-05-09T01:03:49.553Z,78.42
2024-05-09T01:04:46.978Z,78.52
2024-05-09T01:05:46.827Z,78.52
2024-05-09T01:06:46.741Z,78.72
2024-05-09T01:07:46.783Z,78.97
2024-05-09T01:08:46.753Z,79.27
2024-05-09T01:09:46.718Z,79.48
2024-05-09T01:10:48.550Z,79.58
2024-05-09T01:11:46.766Z,79.58
2024-05-09T01:12:46.685Z,79.58
2024-05-09T01:13:46.708Z,79.48
2024-05-09T01:14:46.651Z,79.38
2024-05-09T01:15:46.656Z,79.38
2024-05-09T01:16:46.714Z,79.48
2024-05-09T01:17:46.784Z,79.58
2024-05-09T01:18:46.686Z,79.68
2024-05-09T01:19:46.663Z,79.79
2024-05-09T01:20:46.643Z,79.93
2024-05-09T01:21:46.624Z,80.33
2024-05-09T01:22:46.616Z,80.33
2024-05-09T01:23:46.612Z,80.33
2024-05-09T01:24:46.549Z,80.54
2024-05-09T01:25:47.132Z,80.44
2024-05-09T01:26:46.573Z,80.44
2024-05-09T01:27:46.547Z,80.44
2024-05-09T01:28:46.595Z,80.23
2024-05-09T01:29:46.496Z,80.23
2024-05-09T01:30:46.478Z,80.23
2024-05-09T01:31:46.569Z,80.23
2024-05-09T01:32:46.716Z,80.13
2024-05-09T01:33:46.819Z,80.23
2024-05-09T01:34:46.539Z,80.13
2024-05-09T01:35:46.540Z,80.44
2024-05-09T01:36:46.459Z,80.54
2024-05-09T01:37:46.472Z,80.64
2024-05-09T01:38:46.410Z,80.74
2024-05-09T01:39:46.408Z,80.64
2024-05-09T01:40:46.420Z,80.64
2024-05-09T01:41:46.375Z,80.44
2024-05-09T01:42:46.389Z,80.33
2024-05-09T01:43:46.391Z,80.33
2024-05-09T01:44:46.343Z,80.33
2024-05-09T01:45:46.398Z,80.33
2024-05-09T01:46:46.373Z,80.23
2024-05-09T01:47:46.563Z,80.33
2024-05-09T01:48:46.366Z,80.33
2024-05-09T01:49:46.352Z,80.13
2024-05-09T01:50:46.353Z,80.03
2024-05-09T01:51:46.298Z,80.13
2024-05-09T01:52:46.371Z,80.13
2024-05-09T01:53:46.331Z,80.23
2024-05-09T01:54:46.230Z,80.13
2024-05-09T01:55:46.312Z,80.13
2024-05-09T01:56:46.224Z,80.33
2024-05-09T01:57:46.265Z,80.23
2024-05-09T01:58:46.264Z,80.23
2024-05-09T01:59:46.243Z,80.03
2024-05-09T02:00:46.240Z,80.23
2024-05-09T02:01:56.495Z,80.13
2024-05-09T02:02:47.413Z,80.23
2024-05-09T02:03:46.358Z,80.33
2024-05-09T02:04:46.346Z,80.33
2024-05-09T02:05:47.143Z,80.23
2024-05-09T02:06:46.107Z,80.33
2024-05-09T02:07:46.172Z,80.23
2024-05-09T02:08:46.188Z,80.23
2024-05-09T02:09:46.120Z,80.23
2024-05-09T02:10:46.184Z,80.13
2024-05-09T02:11:46.130Z,80.13
2024-05-09T02:12:46.106Z,80.23
2024-05-09T02:13:46.101Z,80.23
2024-05-09T02:14:46.030Z,80.23
2024-05-09T02:15:46.039Z,80.33
2024-05-09T02:16:46.038Z,80.78
2024-05-09T02:17:46.183Z,80.88
2024-05-09T02:18:46.056Z,80.99
2024-05-09T02:19:46.017Z,80.78
2024-05-09T02:20:45.995Z,80.68
2024-05-09T02:21:45.970Z,80.99
2024-05-09T02:22:46.009Z,81.09
2024-05-09T02:23:45.976Z,81.09
2024-05-09T02:24:45.964Z,81.29
2024-05-09T02:25:45.950Z,81.29
2024-05-09T02:26:45.923Z,81.54
2024-05-09T02:27:45.907Z,81.74
2024-05-09T02:28:45.975Z,81.85
2024-05-09T02:29:45.893Z,81.85
2024-05-09T02:30:45.869Z,81.85
2024-05-09T02:31:45.919Z,81.95
2024-05-09T02:32:46.016Z,82.05
2024-05-09T02:33:46.051Z,82.15
2024-05-09T02:34:45.890Z,82.70
2024-05-09T02:35:45.858Z,82.91
2024-05-09T02:36:45.782Z,82.91
2024-05-09T02:37:45.800Z,82.91
2024-05-09T02:38:45.817Z,83.01
2024-05-09T02:39:45.766Z,83.01
2024-05-09T02:40:45.750Z,82.81
2024-05-09T02:41:45.793Z,82.91
2024-05-09T02:42:45.697Z,82.77
2024-05-09T02:43:45.770Z,82.67
2024-05-09T02:44:45.675Z,82.46
2024-05-09T02:45:45.683Z,82.60
2024-05-09T02:46:45.816Z,82.70
2024-05-09T02:47:45.857Z,82.60
2024-05-09T02:48:45.906Z,82.60
2024-05-09T02:49:45.654Z,82.70
2024-05-09T02:50:45.664Z,82.60
2024-05-09T02:51:45.596Z,82.81
2024-05-09T02:52:45.605Z,82.81
2024-05-09T02:53:45.607Z,82.81
2024-05-09T02:54:45.570Z,82.70
2024-05-09T02:55:45.585Z,82.70
2024-05-09T02:56:45.538Z,82.70
2024-05-09T02:57:45.523Z,82.67
2024-05-09T02:58:45.559Z,82.56
2024-05-09T02:59:45.494Z,82.60
2024-05-09T03:00:45.567Z,82.81
2024-05-09T03:01:45.739Z,82.81
2024-05-09T03:02:45.661Z,83.01
2024-05-09T03:03:45.647Z,83.01
2024-05-09T03:04:45.540Z,83.01
2024-05-09T03:05:45.789Z,83.01
2024-05-09T03:06:45.449Z,83.12
2024-05-09T03:07:45.499Z,83.12
2024-05-09T03:08:45.484Z,83.32
2024-05-09T03:09:45.405Z,83.67
2024-05-09T03:10:45.463Z,83.67
2024-05-09T03:11:45.484Z,83.98
2024-05-09T03:12:45.464Z,84.08
2024-05-09T03:13:45.408Z,84.28
2024-05-09T03:14:45.352Z,84.39
2024-05-09T03:15:45.404Z,84.53
2024-05-09T03:16:45.349Z,84.94
2024-05-09T03:17:45.535Z,85.14
2024-05-09T03:18:45.478Z,85.25
2024-05-09T03:19:45.362Z,85.25
2024-05-09T03:20:45.327Z,85.14
2024-05-09T03:21:45.309Z,85.35
2024-05-09T03:22:45.335Z,85.35
2024-05-09T03:23:45.372Z,85.46
2024-05-09T03:24:45.259Z,85.46
2024-05-09T03:25:45.283Z,85.80
2024-05-09T03:26:45.224Z,86.00
2024-05-09T03:27:45.241Z,86.00
2024-05-09T03:28:45.237Z,86.11
2024-05-09T03:29:45.253Z,86.62
2024-05-09T03:30:45.184Z,86.42
2024-05-09T03:31:45.335Z,86.32
2024-05-09T03:32:45.292Z,86.21
2024-05-09T03:33:45.389Z,86.35
2024-05-09T03:34:45.337Z,86.52
2024-05-09T03:35:45.139Z,86.52
2024-05-09T03:36:45.118Z,86.42
2024-05-09T03:37:45.154Z,86.32
2024-05-09T03:38:45.146Z,86.21
2024-05-09T03:39:45.150Z,86.00
2024-05-09T03:40:45.219Z,86.00
2024-05-09T03:41:45.101Z,86.21
2024-05-09T03:42:45.081Z,86.11
2024-05-09T03:43:45.082Z,86.11
2024-05-09T03:44:45.044Z,86.00
2024-05-09T03:45:45.014Z,86.00
2024-05-09T03:46:45.090Z,86.00
2024-05-09T03:47:45.241Z,85.80
2024-05-09T03:48:45.114Z,85.90
2024-05-09T03:49:45.024Z,85.90
2024-05-09T03:50:45.059Z,85.80
2024-05-09T03:51:44.972Z,86.00
2024-05-09T03:52:44.956Z,85.80
2024-05-09T03:53:45.020Z,85.66
2024-05-09T03:54:44.919Z,85.46
2024-05-09T03:55:45.015Z,85.46
2024-05-09T03:56:44.996Z,85.49
2024-05-09T03:57:44.923Z,85.80
2024-05-09T03:58:44.936Z,86.11
2024-05-09T03:59:44.950Z,86.32
2024-05-09T04:00:44.967Z,86.32
2024-05-09T04:01:45.206Z,86.32
2024-05-09T04:02:44.971Z,86.21
2024-05-09T04:03:45.139Z,86.00
2024-05-09T04:04:45.112Z,85.80
2024-05-09T04:05:45.096Z,85.70
2024-05-09T04:06:44.794Z,85.80
2024-05-09T04:07:44.841Z,86.00
2024-05-09T04:08:44.846Z,86.21
2024-05-09T04:09:44.801Z,86.21
2024-05-09T04:10:44.910Z,86.17
2024-05-09T04:11:44.859Z,85.86
2024-05-09T04:12:44.736Z,85.35
2024-05-09T04:13:44.772Z,85.35
2024-05-09T04:14:44.726Z,85.35
2024-05-09T04:15:44.731Z,85.14
2024-05-09T04:16:44.794Z,84.90
2024-05-09T04:17:44.832Z,84.90
2024-05-09T04:18:44.842Z,84.39
2024-05-09T04:19:44.712Z,84.04
2024-05-09T04:20:44.818Z,83.83
2024-05-09T04:21:44.639Z,83.98
2024-05-09T04:22:44.674Z,83.98
2024-05-09T04:23:44.683Z,84.08
2024-05-09T04:24:44.610Z,84.28
2024-05-09T04:25:45.441Z,84.39
2024-05-09T04:26:44.593Z,84.49
2024-05-09T04:27:44.581Z,84.63
2024-05-09T04:28:44.621Z,84.94
2024-05-09T04:29:44.570Z,84.94
2024-05-09T04:30:44.550Z,85.04
2024-05-09T04:31:44.609Z,85.14
2024-05-09T04:32:44.754Z,85.35
2024-05-09T04:33:44.681Z,85.55
2024-05-09T04:34:44.600Z,85.55
2024-05-09T04:35:45.005Z,85.11
2024-05-09T04:36:44.803Z,84.69
2024-05-09T04:37:44.519Z,84.28
2024-05-09T04:38:44.509Z,84.18
2024-05-09T04:39:44.458Z,84.08
2024-05-09T04:40:44.525Z,84.08
2024-05-09T04:41:44.470Z,83.42
2024-05-09T04:42:44.427Z,83.32
2024-05-09T04:43:44.416Z,83.01
2024-05-09T04:44:44.425Z,82.81
2024-05-09T04:45:44.416Z,83.18
2024-05-09T04:46:44.464Z,82.87
2024-05-09T04:47:44.477Z,82.12
2024-05-09T04:48:44.448Z,82.01
2024-05-09T04:49:44.386Z,81.98
2024-05-09T04:50:44.393Z,81.05
2024-05-09T04:51:44.349Z,80.54
2024-05-09T04:52:44.348Z,80.30
2024-05-09T04:53:44.576Z,80.43
2024-05-09T04:54:44.319Z,77.76
2024-05-09T04:55:44.508Z,73.91
2024-05-09T04:56:44.387Z,73.50
2024-05-09T04:57:44.281Z,72.72
2024-05-09T04:58:44.328Z,71.46
2024-05-09T04:59:44.266Z,70.38
2024-05-09T05:00:44.339Z,69.40
2024-05-09T05:01:44.273Z,67.10
2024-05-09T05:02:44.384Z,66.05
2024-05-09T05:03:44.417Z,66.41
2024-05-09T05:04:44.353Z,68.07
2024-05-09T05:05:45.435Z,66.96
2024-05-09T05:06:44.188Z,67.94
2024-05-09T05:07:44.223Z,66.42
2024-05-09T05:08:44.210Z,65.42
2024-05-09T05:09:44.189Z,62.79
2024-05-09T05:10:44.188Z,60.36
2024-05-09T05:11:44.405Z,60.10
2024-05-09T05:12:44.103Z,60.27
2024-05-09T05:13:44.136Z,59.00
2024-05-09T05:14:44.089Z,57.14
2024-05-09T05:15:44.088Z,56.43
2024-05-09T05:16:44.175Z,56.32
2024-05-09T05:17:44.200Z,56.96
2024-05-09T05:18:44.264Z,56.91
2024-05-09T05:19:44.135Z,58.51
2024-05-09T05:20:44.229Z,60.42
2024-05-09T05:21:44.026Z,61.87
2024-05-09T05:22:44.053Z,61.97
2024-05-09T05:23:44.072Z,62.01
2024-05-09T05:24:43.989Z,60.97
2024-05-09T05:25:44.057Z,59.90
2024-05-09T05:26:44.040Z,58.40
2024-05-09T05:27:43.945Z,56.76
2024-05-09T05:28:44.075Z,56.32
2024-05-09T05:29:43.941Z,56.65
2024-05-09T05:30:43.915Z,56.02
2024-05-09T05:31:43.960Z,56.40
2024-05-09T05:32:44.066Z,55.16
2024-05-09T05:33:43.961Z,56.17
2024-05-09T05:34:43.965Z,54.53
2024-05-09T05:35:43.914Z,55.64
2024-05-09T05:36:43.889Z,54.08
2024-05-09T05:37:44.013Z,52.77
2024-05-09T05:38:43.985Z,53.92
2024-05-09T05:39:43.816Z,54.63
2024-05-09T05:40:43.839Z,54.61
2024-05-09T05:41:43.976Z,53.60
2024-05-09T05:42:43.814Z,53.92
2024-05-09T05:43:43.874Z,54.53
2024-05-09T05:44:43.769Z,55.19
2024-05-09T05:45:43.772Z,53.83
2024-05-09T05:46:43.767Z,52.59
2024-05-09T05:47:43.997Z,51.29
2024-05-09T05:48:43.793Z,51.91
2024-05-09T05:49:43.752Z,53.70
2024-05-09T05:50:43.737Z,52.17
2024-05-09T05:51:43.699Z,51.94
2024-05-09T05:52:43.688Z,50.66
2024-05-09T05:53:43.759Z,53.05
2024-05-09T05:54:43.649Z,53.17
2024-05-09T05:55:43.653Z,53.78
2024-05-09T05:56:43.700Z,53.47
2024-05-09T05:57:43.628Z,54.30
2024-05-09T05:58:43.651Z,54.41
2024-05-09T05:59:43.677Z,53.67
2024-05-09T06:00:43.647Z,54.53
2024-05-09T06:01:43.585Z,52.42
2024-05-09T06:02:43.774Z,52.94
2024-05-09T06:03:43.746Z,53.02
2024-05-09T06:04:43.561Z,53.47
2024-05-09T06:05:44.162Z,51.56
2024-05-09T06:06:43.537Z,53.37
2024-05-09T06:07:43.526Z,51.64
2024-05-09T06:08:43.610Z,51.67
2024-05-09T06:09:45.975Z,48.73
2024-05-09T06:10:43.714Z,49.01
2024-05-09T06:11:43.599Z,48.57
2024-05-09T06:12:43.476Z,48.44
2024-05-09T06:13:43.449Z,48.10
2024-05-09T06:14:43.492Z,45.87
2024-05-09T06:15:44.019Z,45.55
2024-05-09T06:16:43.488Z,46.77
2024-05-09T06:17:43.536Z,45.07
2024-05-09T06:18:43.562Z,46.06
2024-05-09T06:19:43.467Z,49.13
2024-05-09T06:20:44.291Z,50.33
2024-05-09T06:21:43.375Z,50.71
2024-05-09T06:22:43.372Z,52.84
2024-05-09T06:23:43.400Z,54.71
2024-05-09T06:24:43.399Z,55.19
2024-05-09T06:25:43.347Z,55.09
2024-05-09T06:26:43.403Z,55.99
2024-05-09T06:27:43.387Z,55.82
2024-05-09T06:28:43.365Z,56.37
2024-05-09T06:29:43.414Z,54.91
2024-05-09T06:30:43.570Z,55.06
2024-05-09T06:31:43.268Z,51.68
2024-05-09T06:32:43.495Z,52.06
2024-05-09T06:33:43.434Z,50.81
2024-05-09T06:34:43.286Z,49.68
2024-05-09T06:35:43.370Z,48.96
2024-05-09T06:36:43.257Z,48.43
2024-05-09T06:37:43.212Z,47.93
2024-05-09T06:38:43.372Z,49.04
2024-05-09T06:39:43.179Z,48.11
2024-05-09T06:40:44.277Z,47.76
2024-05-09T06:41:43.246Z,47.49
2024-05-09T06:42:43.210Z,45.17
2024-05-09T06:43:43.152Z,45.85
2024-05-09T06:44:43.225Z,44.91
2024-05-09T06:45:43.155Z,43.87
2024-05-09T06:46:43.186Z,45.47
2024-05-09T06:47:43.296Z,45.96
2024-05-09T06:48:43.403Z,47.00
2024-05-09T06:49:43.125Z,48.80
2024-05-09T06:50:43.117Z,51.44
2024-05-09T06:51:43.090Z,50.53
2024-05-09T06:52:43.046Z,50.31
2024-05-09T06:53:43.083Z,50.94
2024-05-09T06:54:43.036Z,48.49
2024-05-09T06:55:43.041Z,46.76
2024-05-09T06:56:43.110Z,47.31
2024-05-09T06:57:43.295Z,46.27
2024-05-09T06:58:43.025Z,44.89
2024-05-09T06:59:43.020Z,46.16
2024-05-09T07:00:43.028Z,50.88
2024-05-09T07:01:42.961Z,55.44
2024-05-09T07:02:44.613Z,56.07
2024-05-09T07:03:43.025Z,57.18
2024-05-09T07:04:42.977Z,57.31
2024-05-09T07:05:43.278Z,57.98
2024-05-09T07:06:42.935Z,58.81
2024-05-09T07:07:42.928Z,59.50
2024-05-09T07:08:42.949Z,61.29
2024-05-09T07:09:42.886Z,62.23
2024-05-09T07:10:43.002Z,62.97
2024-05-09T07:11:43.118Z,63.37
2024-05-09T07:12:42.853Z,63.28
2024-05-09T07:13:42.854Z,63.58
2024-05-09T07:14:42.865Z,63.78
2024-05-09T07:15:42.852Z,63.78
2024-05-09T07:16:42.808Z,63.37
2024-05-09T07:17:42.982Z,63.75
2024-05-09T07:18:42.987Z,63.45
2024-05-09T07:19:42.842Z,63.04
2024-05-09T07:20:42.919Z,62.97
2024-05-09T07:21:42.761Z,62.97
2024-05-09T07:22:42.772Z,63.17
2024-05-09T07:23:46.127Z,63.30
2024-05-09T07:24:42.727Z,63.68
2024-05-09T07:25:42.759Z,63.20
2024-05-09T07:26:42.811Z,63.60
2024-05-09T07:27:42.799Z,63.88
2024-05-09T07:28:42.749Z,64.09
2024-05-09T07:29:42.824Z,63.58
2024-05-09T07:30:42.683Z,63.34
2024-05-09T07:31:42.687Z,62.71
2024-05-09T07:32:42.716Z,61.90
2024-05-09T07:33:42.750Z,61.16
2024-05-09T07:34:42.693Z,60.55
2024-05-09T07:35:42.696Z,60.52
2024-05-09T07:36:42.660Z,60.52
2024-05-09T07:37:42.587Z,60.42
2024-05-09T07:38:42.691Z,60.62
2024-05-09T07:39:42.605Z,60.31
2024-05-09T07:40:42.604Z,60.31
2024-05-09T07:41:42.647Z,61.13
2024-05-09T07:42:42.559Z,60.39
2024-05-09T07:43:42.560Z,60.39
2024-05-09T07:44:42.568Z,60.59
2024-05-09T07:45:50.822Z,60.19
2024-05-09T07:49:12.451Z,60.31
2024-05-09T07:51:32.322Z,60.21
2024-05-09T07:53:34.289Z,60.39
2024-05-09T07:53:47.152Z,60.59
2024-05-09T07:54:43.576Z,60.26
2024-05-09T07:55:42.623Z,59.65
2024-05-09T07:56:42.620Z,60.08
2024-05-09T07:57:42.533Z,60.26
2024-05-09T07:58:42.476Z,59.55
2024-05-09T07:59:42.385Z,59.45
2024-05-09T08:00:42.455Z,59.34
2024-05-09T08:01:42.501Z,60.26
2024-05-09T08:02:42.413Z,59.45
2024-05-09T08:03:42.514Z,59.42
2024-05-09T08:04:42.422Z,58.31
2024-05-09T08:05:42.420Z,57.80
2024-05-09T08:06:42.332Z,58.07
2024-05-09T08:07:42.285Z,57.87
2024-05-09T08:08:42.333Z,58.20
2024-05-09T08:09:42.301Z,58.61
2024-05-09T08:10:42.383Z,58.41
2024-05-09T08:11:42.314Z,58.58
2024-05-09T08:12:42.305Z,58.18
2024-05-09T08:13:42.376Z,58.18
2024-05-09T08:14:42.209Z,58.18
2024-05-09T08:15:42.371Z,58.18
2024-05-09T08:16:42.188Z,59.06
2024-05-09T08:17:42.301Z,58.63
2024-05-09T08:18:42.365Z,57.92
2024-05-09T08:19:42.282Z,57.31
2024-05-09T08:20:42.167Z,57.01
2024-05-09T08:21:42.351Z,57.14
2024-05-09T08:22:42.146Z,57.24
2024-05-09T08:23:42.184Z,57.04
2024-05-09T08:24:42.252Z,57.21
2024-05-09T08:25:42.107Z,57.31
2024-05-09T08:26:42.093Z,56.81
2024-05-09T08:27:42.160Z,57.42
2024-05-09T08:28:42.116Z,56.51
2024-05-09T08:29:42.140Z,56.30
2024-05-09T08:30:42.110Z,56.20
2024-05-09T08:31:42.053Z,56.30
2024-05-09T08:32:42.162Z,56.20
2024-05-09T08:33:42.255Z,56.48
2024-05-09T08:34:42.074Z,56.48
2024-05-09T08:35:42.004Z,56.58
2024-05-09T08:36:42.164Z,56.07
2024-05-09T08:37:42.188Z,55.77
2024-05-09T08:38:41.971Z,55.67
2024-05-09T08:39:41.977Z,56.38
2024-05-09T08:40:42.139Z,55.36
2024-05-09T08:41:41.944Z,55.47
2024-05-09T08:42:42.069Z,54.63
2024-05-09T08:43:42.178Z,55.27
2024-05-09T08:44:41.894Z,54.63
2024-05-09T08:45:42.155Z,54.74
2024-05-09T08:46:41.903Z,54.21
2024-05-09T08:47:41.935Z,53.30
2024-05-09T08:48:41.993Z,53.93
2024-05-09T08:49:41.908Z,54.23
2024-05-09T08:50:42.074Z,54.03
2024-05-09T08:51:41.878Z,54.33
2024-05-09T08:52:41.825Z,53.90
2024-05-09T08:53:41.827Z,52.72
2024-05-09T08:54:41.839Z,52.61
2024-05-09T08:55:43.611Z,52.74
2024-05-09T08:56:41.778Z,52.94
2024-05-09T08:57:41.815Z,52.82
2024-05-09T08:58:41.782Z,53.02
2024-05-09T08:59:41.765Z,53.83
2024-05-09T09:00:42.138Z,53.63
2024-05-09T09:01:41.850Z,53.32
2024-05-09T09:02:41.849Z,53.45
2024-05-09T09:03:41.935Z,50.72
2024-05-09T09:04:41.756Z,50.82
2024-05-09T09:05:41.852Z,48.68
2024-05-09T09:06:41.728Z,47.67
2024-05-09T09:07:41.743Z,46.13
2024-05-09T09:08:41.744Z,46.43
2024-05-09T09:09:41.658Z,47.22
2024-05-09T09:10:41.793Z,48.02
2024-05-09T09:11:41.639Z,48.71
2024-05-09T09:12:41.778Z,48.50
2024-05-09T09:13:41.653Z,47.70
2024-05-09T09:14:41.680Z,47.38
2024-05-09T09:15:41.661Z,47.67
2024-05-09T09:16:41.579Z,47.78
2024-05-09T09:17:41.662Z,48.69
2024-05-09T09:18:41.712Z,48.58
2024-05-09T09:19:41.737Z,48.99
2024-05-09T09:20:41.573Z,49.21
2024-05-09T09:21:41.556Z,49.92
2024-05-09T09:22:41.531Z,49.90
2024-05-09T09:23:41.556Z,49.69
2024-05-09T09:24:41.529Z,49.57
2024-05-09T09:25:41.512Z,49.57
2024-05-09T09:26:41.474Z,48.69
2024-05-09T09:27:41.531Z,48.79
2024-05-09T09:28:41.607Z,49.19
2024-05-09T09:29:41.486Z,48.89
2024-05-09T09:30:41.550Z,48.89
2024-05-09T09:31:41.448Z,48.69
2024-05-09T09:32:41.513Z,49.99
2024-05-09T09:33:41.578Z,49.07
2024-05-09T09:34:41.460Z,48.26
2024-05-09T09:35:41.398Z,47.75
2024-05-09T09:36:41.460Z,47.86
2024-05-09T09:37:41.427Z,47.35
2024-05-09T09:38:41.440Z,47.63
2024-05-09T09:39:41.416Z,46.75
2024-05-09T09:40:46.621Z,47.67
2024-05-09T09:41:42.388Z,48.18
2024-05-09T09:42:41.335Z,48.41
2024-05-09T09:43:41.331Z,48.18
2024-05-09T09:44:42.294Z,48.30
2024-05-09T09:45:41.350Z,48.41
2024-05-09T09:46:41.291Z,48.85
2024-05-09T09:47:41.397Z,49.36
2024-05-09T09:48:41.604Z,49.66
2024-05-09T09:49:41.275Z,49.33
2024-05-09T09:50:41.225Z,49.01
2024-05-09T09:51:41.360Z,48.61
2024-05-09T09:52:41.266Z,48.89
2024-05-09T09:53:41.204Z,48.66
2024-05-09T09:54:41.228Z,48.16
2024-05-09T09:55:41.178Z,47.74
2024-05-09T09:56:41.221Z,47.15
2024-05-09T09:57:41.193Z,47.53
2024-05-09T09:58:41.185Z,47.53
2024-05-09T09:59:41.144Z,47.53
2024-05-09T10:00:41.376Z,46.83
2024-05-09T10:01:41.184Z,46.62
2024-05-09T10:02:41.133Z,46.73
2024-05-09T10:03:42.334Z,46.33
2024-05-09T10:04:41.135Z,46.62
2024-05-09T10:05:44.045Z,46.73
2024-05-09T10:06:42.110Z,47.13
2024-05-09T10:07:41.074Z,46.93
2024-05-09T10:08:41.118Z,46.40
2024-05-09T10:09:41.177Z,46.80
2024-05-09T10:10:41.159Z,45.27
2024-05-09T10:11:45.410Z,45.47
2024-05-09T10:12:42.017Z,45.07
2024-05-09T10:13:41.013Z,45.65
2024-05-09T10:14:41.051Z,45.15
2024-05-09T10:15:40.999Z,44.47
2024-05-09T10:16:40.970Z,44.29
2024-05-09T10:17:41.002Z,44.51
2024-05-09T10:18:41.840Z,44.51
2024-05-09T10:19:41.786Z,44.59
2024-05-09T10:20:40.945Z,44.69
2024-05-09T10:21:40.945Z,44.89
2024-05-09T10:22:40.937Z,44.37
2024-05-09T10:23:40.980Z,44.07
2024-05-09T10:24:41.097Z,43.79
2024-05-09T10:25:40.863Z,44.19
2024-05-09T10:26:40.933Z,44.19
2024-05-09T10:27:40.965Z,43.79
2024-05-09T10:28:40.860Z,43.99
2024-05-09T10:29:40.824Z,44.29
2024-05-09T10:30:43.071Z,44.27
2024-05-09T10:31:41.041Z,44.15
2024-05-09T10:32:40.956Z,43.62
2024-05-09T10:33:41.037Z,43.82
2024-05-09T10:34:40.870Z,43.42
2024-05-09T10:35:40.839Z,44.51
2024-05-09T10:36:40.838Z,43.40
2024-05-09T10:37:40.782Z,44.28
2024-05-09T10:38:40.806Z,44.18
2024-05-09T10:39:40.767Z,43.66
2024-05-09T10:40:40.825Z,43.04
2024-05-09T10:41:40.757Z,42.46
2024-05-09T10:42:40.759Z,44.16
2024-05-09T10:43:40.740Z,42.35
2024-05-09T10:44:40.692Z,42.72
2024-05-09T10:45:40.733Z,44.02
2024-05-09T10:46:40.687Z,43.72
2024-05-09T10:47:40.843Z,44.02
2024-05-09T10:48:40.744Z,43.62
2024-05-09T10:49:40.665Z,43.92
2024-05-09T10:50:40.624Z,44.04
2024-05-09T10:51:40.657Z,44.07
2024-05-09T10:52:40.592Z,44.39
2024-05-09T10:53:40.599Z,44.69
2024-05-09T10:54:40.696Z,45.57
2024-05-09T10:55:40.575Z,44.47
2024-05-09T10:56:40.576Z,43.64
2024-05-09T10:57:40.640Z,43.84
2024-05-09T10:58:40.562Z,43.54
2024-05-09T10:59:40.516Z,43.64
2024-05-09T11:00:40.548Z,43.64
2024-05-09T11:01:40.656Z,43.84
2024-05-09T11:02:40.663Z,44.15
2024-05-09T11:03:40.673Z,43.74
2024-05-09T11:04:40.527Z,43.22
2024-05-09T11:05:40.626Z,43.12
2024-05-09T11:06:40.646Z,44.00
2024-05-09T11:07:40.522Z,43.40
2024-05-09T11:08:40.444Z,42.82
2024-05-09T11:09:40.486Z,43.44
2024-05-09T11:10:40.419Z,44.65
2024-05-09T11:11:40.501Z,44.04
2024-05-09T11:12:40.430Z,43.32
2024-05-09T11:13:40.409Z,43.62
2024-05-09T11:14:40.473Z,43.22
2024-05-09T11:15:40.437Z,43.24
2024-05-09T11:16:40.408Z,43.66
2024-05-09T11:17:40.437Z,43.64
2024-05-09T11:18:40.648Z,43.54
2024-05-09T11:19:40.451Z,43.54
2024-05-09T11:20:40.471Z,43.82
2024-05-09T11:21:40.414Z,43.12
2024-05-09T11:22:40.267Z,43.20
2024-05-09T11:23:40.283Z,42.90
2024-05-09T11:24:40.387Z,43.50
2024-05-09T11:25:40.385Z,43.68
2024-05-09T11:26:40.329Z,42.86
2024-05-09T11:27:40.295Z,41.85
2024-05-09T11:28:40.400Z,42.94
2024-05-09T11:29:40.210Z,41.74
2024-05-09T11:30:40.253Z,41.91
2024-05-09T11:31:40.330Z,41.51
2024-05-09T11:32:40.385Z,41.43
2024-05-09T11:33:40.423Z,41.96
2024-05-09T11:34:40.200Z,42.16
2024-05-09T11:35:40.130Z,42.05
2024-05-09T11:36:40.223Z,41.96
2024-05-09T11:37:40.272Z,42.03
2024-05-09T11:38:40.110Z,41.53
2024-05-09T11:39:40.195Z,41.55
2024-05-09T11:40:40.277Z,41.65
2024-05-09T11:41:41.096Z,41.55
2024-05-09T11:42:40.186Z,41.37
2024-05-09T11:43:40.082Z,41.67
2024-05-09T11:44:40.118Z,41.67
2024-05-09T11:45:40.124Z,41.87
2024-05-09T11:46:40.033Z,41.75
2024-05-09T11:47:40.191Z,41.75
2024-05-09T11:48:40.317Z,42.03
2024-05-09T11:49:40.174Z,41.91
2024-05-09T11:50:40.105Z,41.11
2024-05-09T11:51:40.118Z,41.09
2024-05-09T11:52:39.972Z,40.99
2024-05-09T11:53:40.099Z,41.19
2024-05-09T11:54:40.085Z,40.19
2024-05-09T11:55:39.953Z,40.69
2024-05-09T11:56:40.015Z,42.10
2024-05-09T11:57:39.988Z,42.07
2024-05-09T11:58:39.902Z,40.49
2024-05-09T11:59:39.952Z,40.71
2024-05-09T12:00:40.031Z,41.11
2024-05-09T12:01:40.129Z,41.33
2024-05-09T12:02:40.018Z,41.33
2024-05-09T12:03:39.998Z,41.53
2024-05-09T12:04:39.959Z,41.74
2024-05-09T12:05:40.012Z,41.71
2024-05-09T12:06:39.928Z,41.31
2024-05-09T12:07:39.827Z,40.69
2024-05-09T12:08:39.839Z,40.49
2024-05-09T12:09:39.953Z,40.89
2024-05-09T12:10:39.966Z,40.39
2024-05-09T12:11:39.952Z,40.51
2024-05-09T12:12:39.900Z,41.13
2024-05-09T12:13:39.784Z,41.03
2024-05-09T12:14:39.743Z,41.82
2024-05-09T12:15:39.854Z,41.60
2024-05-09T12:16:40.853Z,41.49
2024-05-09T12:17:39.808Z,40.59
2024-05-09T12:18:39.792Z,40.47
2024-05-09T12:19:39.888Z,39.87
2024-05-09T12:20:40.376Z,39.09
2024-05-09T12:21:39.701Z,39.69
2024-05-09T12:22:39.707Z,39.83
2024-05-09T12:23:39.901Z,40.43
2024-05-09T12:24:39.671Z,40.43
2024-05-09T12:25:40.103Z,40.55
2024-05-09T12:26:40.257Z,40.55
2024-05-09T12:27:39.653Z,41.33
2024-05-09T12:28:40.845Z,40.81
2024-05-09T12:29:39.715Z,42.02
2024-05-09T12:30:41.114Z,40.79
2024-05-09T12:31:39.613Z,40.01
2024-05-09T12:32:39.779Z,40.29
2024-05-09T12:33:39.660Z,40.19
2024-05-09T12:34:39.705Z,40.41
2024-05-09T12:35:39.573Z,39.83
2024-05-09T12:36:39.571Z,39.83
2024-05-09T12:37:39.565Z,40.25
2024-05-09T12:38:39.550Z,40.35
2024-05-09T12:39:39.581Z,40.13
2024-05-09T12:40:39.734Z,39.84
2024-05-09T12:41:39.463Z,39.45
2024-05-09T12:42:39.532Z,38.64
2024-05-09T12:43:39.536Z,38.53
2024-05-09T12:44:39.450Z,38.02
2024-05-09T12:45:39.847Z,38.14
2024-05-09T12:46:39.420Z,38.64
2024-05-09T12:47:39.562Z,38.94
2024-05-09T12:48:39.855Z,38.62
2024-05-09T12:49:39.753Z,38.32
2024-05-09T12:50:39.483Z,38.82
2024-05-09T12:51:39.391Z,39.91
2024-05-09T12:52:39.367Z,38.51
2024-05-09T12:53:39.374Z,38.39
2024-05-09T12:54:39.487Z,37.88
2024-05-09T12:55:45.140Z,37.77
2024-05-09T12:56:40.329Z,37.18